sensor_id;sensor_type;location;lat;lon;timestamp;pressure;altitude;pressure_sealevel;temperature;humidity
79534;BME280;68982;52.160;6.736;2023-04-10T00:00:08;101972.22;;;7.85;57.27
79534;BME280;68982;52.160;6.736;2023-04-10T00:02:34;101974.03;;;7.84;57.82
79534;BME280;68982;52.160;6.736;2023-04-10T00:05:01;101969.25;;;7.78;57.58
79534;BME280;68982;52.160;6.736;2023-04-10T00:07:27;101963.88;;;7.78;57.68
79534;BME280;68982;52.160;6.736;2023-04-10T00:09:52;101968.66;;;7.84;57.79
79534;BME280;68982;52.160;6.736;2023-04-10T00:12:17;101972.06;;;7.86;58.07
79534;BME280;68982;52.160;6.736;2023-04-10T00:14:43;101965.00;;;7.85;57.85
79534;BME280;68982;52.160;6.736;2023-04-10T00:17:08;101964.44;;;7.92;57.71
79534;BME280;68982;52.160;6.736;2023-04-10T00:19:34;101972.06;;;7.86;57.55
79534;BME280;68982;52.160;6.736;2023-04-10T00:21:59;101966.13;;;7.83;57.82
79534;BME280;68982;52.160;6.736;2023-04-10T00:24:25;101963.88;;;7.88;57.27
79534;BME280;68982;52.160;6.736;2023-04-10T00:26:50;101972.06;;;7.86;57.97
79534;BME280;68982;52.160;6.736;2023-04-10T00:29:16;101967.69;;;7.85;58.07
79534;BME280;68982;52.160;6.736;2023-04-10T00:31:41;101956.22;;;7.83;58.01
79534;BME280;68982;52.160;6.736;2023-04-10T00:34:06;101953.97;;;7.79;58.50
79534;BME280;68982;52.160;6.736;2023-04-10T00:36:33;101947.88;;;7.86;58.39
79534;BME280;68982;52.160;6.736;2023-04-10T00:38:58;101944.09;;;7.79;58.33
79534;BME280;68982;52.160;6.736;2023-04-10T00:41:24;101936.47;;;7.75;58.33
79534;BME280;68982;52.160;6.736;2023-04-10T00:43:57;101939.00;;;7.76;58.58
79534;BME280;68982;52.160;6.736;2023-04-10T00:46:23;101946.75;;;7.79;58.45
79534;BME280;68982;52.160;6.736;2023-04-10T00:48:49;101929.38;;;7.83;58.28
79534;BME280;68982;52.160;6.736;2023-04-10T00:51:17;101938.72;;;7.79;58.80
79534;BME280;68982;52.160;6.736;2023-04-10T00:53:48;101937.56;;;7.82;58.63
79534;BME280;68982;52.160;6.736;2023-04-10T00:56:16;101936.47;;;7.75;58.64
79534;BME280;68982;52.160;6.736;2023-04-10T00:58:42;101935.88;;;7.71;58.88
79534;BME280;68982;52.160;6.736;2023-04-10T01:01:07;101929.13;;;7.67;58.99
79534;BME280;68982;52.160;6.736;2023-04-10T01:03:33;101928.69;;;7.62;59.28
79534;BME280;68982;52.160;6.736;2023-04-10T01:06:07;101927.72;;;7.63;58.79
79534;BME280;68982;52.160;6.736;2023-04-10T01:11:52;101910.75;;;7.62;59.11
79534;BME280;68982;52.160;6.736;2023-04-10T01:14:41;101906.50;;;7.60;59.26
79534;BME280;68982;52.160;6.736;2023-04-10T01:22:29;101901.44;;;7.57;59.05
79534;BME280;68982;52.160;6.736;2023-04-10T01:25:04;101898.34;;;7.52;59.63
79534;BME280;68982;52.160;6.736;2023-04-10T01:30:27;101897.50;;;7.41;59.83
79534;BME280;68982;52.160;6.736;2023-04-10T01:32:54;101888.88;;;7.38;59.91
79534;BME280;68982;52.160;6.736;2023-04-10T01:35:24;101896.06;;;7.37;60.21
79534;BME280;68982;52.160;6.736;2023-04-10T01:37:52;101898.75;;;7.37;59.54
79534;BME280;68982;52.160;6.736;2023-04-10T01:40:18;101899.75;;;7.46;59.48
79534;BME280;68982;52.160;6.736;2023-04-10T01:42:51;101884.78;;;7.34;59.54
79534;BME280;68982;52.160;6.736;2023-04-10T01:45:24;101897.06;;;7.36;59.29
79534;BME280;68982;52.160;6.736;2023-04-10T01:47:51;101894.09;;;7.39;60.10
79534;BME280;68982;52.160;6.736;2023-04-10T01:50:19;101896.63;;;7.31;60.34
79534;BME280;68982;52.160;6.736;2023-04-10T01:52:46;101889.59;;;7.30;60.01
79534;BME280;68982;52.160;6.736;2023-04-10T01:55:12;101885.19;;;7.29;59.96
79534;BME280;68982;52.160;6.736;2023-04-10T01:57:38;101885.06;;;7.21;60.18
79534;BME280;68982;52.160;6.736;2023-04-10T02:00:04;101884.34;;;7.29;59.88
79534;BME280;68982;52.160;6.736;2023-04-10T02:02:31;101884.78;;;7.24;60.53
79534;BME280;68982;52.160;6.736;2023-04-10T02:04:56;101872.63;;;7.20;60.21
79534;BME280;68982;52.160;6.736;2023-04-10T02:07:28;101875.59;;;7.17;60.46
79534;BME280;68982;52.160;6.736;2023-04-10T02:10:09;101878.28;;;7.17;60.37
79534;BME280;68982;52.160;6.736;2023-04-10T02:12:42;101873.22;;;7.14;60.58
79534;BME280;68982;52.160;6.736;2023-04-10T02:15:10;101882.66;;;7.18;60.92
79534;BME280;68982;52.160;6.736;2023-04-10T02:17:37;101872.75;;;7.09;60.61
79534;BME280;68982;52.160;6.736;2023-04-10T02:20:04;101873.50;;;7.20;60.46
79534;BME280;68982;52.160;6.736;2023-04-10T02:22:30;101881.81;;;7.17;60.70
79534;BME280;68982;52.160;6.736;2023-04-10T02:24:56;101870.66;;;7.12;60.82
79534;BME280;68982;52.160;6.736;2023-04-10T02:27:32;101884.06;;;7.12;61.10
79534;BME280;68982;52.160;6.736;2023-04-10T02:29:59;101880.56;;;7.12;60.57
79534;BME280;68982;52.160;6.736;2023-04-10T02:32:24;101876.88;;;7.13;61.00
79534;BME280;68982;52.160;6.736;2023-04-10T02:34:50;101869.38;;;7.06;61.15
79534;BME280;68982;52.160;6.736;2023-04-10T02:37:15;101871.63;;;7.11;60.81
79534;BME280;68982;52.160;6.736;2023-04-10T02:39:41;101872.94;;;7.07;61.24
79534;BME280;68982;52.160;6.736;2023-04-10T02:42:06;101867.69;;;7.05;61.43
79534;BME280;68982;52.160;6.736;2023-04-10T02:44:32;101866.69;;;7.06;60.71
79534;BME280;68982;52.160;6.736;2023-04-10T02:46:57;101846.09;;;6.97;61.30
79534;BME280;68982;52.160;6.736;2023-04-10T02:49:23;101856.25;;;7.03;60.71
79534;BME280;68982;52.160;6.736;2023-04-10T02:51:48;101855.69;;;7.10;61.00
79534;BME280;68982;52.160;6.736;2023-04-10T02:54:13;101853.28;;;7.06;61.03
79534;BME280;68982;52.160;6.736;2023-04-10T02:56:38;101853.28;;;7.06;60.70
79534;BME280;68982;52.160;6.736;2023-04-10T02:59:04;101846.38;;;7.04;61.26
79534;BME280;68982;52.160;6.736;2023-04-10T03:01:30;101842.84;;;7.03;61.23
79534;BME280;68982;52.160;6.736;2023-04-10T03:03:56;101835.78;;;7.02;61.15
79534;BME280;68982;52.160;6.736;2023-04-10T03:06:22;101842.13;;;7.01;61.27
79534;BME280;68982;52.160;6.736;2023-04-10T03:08:50;101836.22;;;7.08;61.27
79534;BME280;68982;52.160;6.736;2023-04-10T03:11:15;101833.81;;;7.04;60.92
79534;BME280;68982;52.160;6.736;2023-04-10T03:13:40;101837.34;;;6.95;61.90
79534;BME280;68982;52.160;6.736;2023-04-10T03:16:06;101829.16;;;6.97;61.79
79534;BME280;68982;52.160;6.736;2023-04-10T03:18:31;101829.03;;;6.98;61.54
79534;BME280;68982;52.160;6.736;2023-04-10T03:20:58;101830.00;;;6.97;61.48
79534;BME280;68982;52.160;6.736;2023-04-10T03:23:23;101837.63;;;7.02;61.18
79534;BME280;68982;52.160;6.736;2023-04-10T03:25:50;101832.25;;;7.02;61.10
79534;BME280;68982;52.160;6.736;2023-04-10T03:28:19;101829.28;;;6.95;61.81
79534;BME280;68982;52.160;6.736;2023-04-10T03:30:45;101821.94;;;6.97;61.73
79534;BME280;68982;52.160;6.736;2023-04-10T03:33:10;101824.38;;;7.00;61.37
79534;BME280;68982;52.160;6.736;2023-04-10T03:35:35;101825.75;;;6.95;61.72
79534;BME280;68982;52.160;6.736;2023-04-10T03:38:01;101824.63;;;6.97;61.68
79534;BME280;68982;52.160;6.736;2023-04-10T03:40:26;101827.06;;;7.00;61.60
79534;BME280;68982;52.160;6.736;2023-04-10T03:42:52;101822.09;;;6.96;61.36
79534;BME280;68982;52.160;6.736;2023-04-10T03:45:17;101810.22;;;6.89;62.01
79534;BME280;68982;52.160;6.736;2023-04-10T03:47:42;101822.78;;;6.88;61.63
79534;BME280;68982;52.160;6.736;2023-04-10T03:50:08;101820.97;;;6.89;61.96
79534;BME280;68982;52.160;6.736;2023-04-10T03:52:33;101816.72;;;6.86;62.19
79534;BME280;68982;52.160;6.736;2023-04-10T03:54:59;101821.50;;;6.82;61.78
79534;BME280;68982;52.160;6.736;2023-04-10T03:57:24;101822.94;;;6.87;62.13
79534;BME280;68982;52.160;6.736;2023-04-10T03:59:50;101813.88;;;6.78;62.33
79534;BME280;68982;52.160;6.736;2023-04-10T04:02:16;101810.50;;;6.76;62.89
79534;BME280;68982;52.160;6.736;2023-04-10T04:04:41;101808.25;;;6.71;62.68
79534;BME280;68982;52.160;6.736;2023-04-10T04:07:06;101802.31;;;6.68;62.59
79534;BME280;68982;52.160;6.736;2023-04-10T04:09:33;101795.69;;;6.62;62.75
79534;BME280;68982;52.160;6.736;2023-04-10T04:11:58;101810.38;;;6.68;62.47
79534;BME280;68982;52.160;6.736;2023-04-10T04:14:23;101807.69;;;6.68;62.69
79534;BME280;68982;52.160;6.736;2023-04-10T04:16:49;101817.69;;;6.66;62.57
79534;BME280;68982;52.160;6.736;2023-04-10T04:19:15;101808.38;;;6.60;63.02
79534;BME280;68982;52.160;6.736;2023-04-10T04:21:40;101809.91;;;6.62;62.54
79534;BME280;68982;52.160;6.736;2023-04-10T04:24:05;101808.78;;;6.55;63.14
79534;BME280;68982;52.160;6.736;2023-04-10T04:26:31;101800.19;;;6.52;63.41
79534;BME280;68982;52.160;6.736;2023-04-10T04:28:56;101801.56;;;6.46;63.47
79534;BME280;68982;52.160;6.736;2023-04-10T04:31:21;101801.03;;;6.52;63.64
79534;BME280;68982;52.160;6.736;2023-04-10T04:33:48;101795.50;;;6.44;63.81
79534;BME280;68982;52.160;6.736;2023-04-10T04:36:13;101792.13;;;6.42;63.68
79534;BME280;68982;52.160;6.736;2023-04-10T04:38:38;101793.38;;;6.38;63.57
79534;BME280;68982;52.160;6.736;2023-04-10T04:41:04;101792.13;;;6.42;63.81
79534;BME280;68982;52.160;6.736;2023-04-10T04:43:29;101794.25;;;6.38;64.07
79534;BME280;68982;52.160;6.736;2023-04-10T04:45:55;101793.38;;;6.38;64.33
79534;BME280;68982;52.160;6.736;2023-04-10T04:48:21;101786.31;;;6.27;64.37
79534;BME280;68982;52.160;6.736;2023-04-10T04:50:46;101796.88;;;6.29;64.46
79534;BME280;68982;52.160;6.736;2023-04-10T04:53:12;101786.03;;;6.20;64.38
79534;BME280;68982;52.160;6.736;2023-04-10T04:55:37;101791.38;;;6.20;64.52
79534;BME280;68982;52.160;6.736;2023-04-10T04:58:03;101790.25;;;6.23;64.57
79534;BME280;68982;52.160;6.736;2023-04-10T05:00:28;101784.59;;;6.26;64.44
79534;BME280;68982;52.160;6.736;2023-04-10T05:02:53;101788.69;;;6.20;64.31
79534;BME280;68982;52.160;6.736;2023-04-10T05:05:19;101791.81;;;6.26;64.70
79534;BME280;68982;52.160;6.736;2023-04-10T05:07:44;101787.56;;;6.23;64.01
79534;BME280;68982;52.160;6.736;2023-04-10T05:10:09;101787.28;;;6.16;64.53
79534;BME280;68982;52.160;6.736;2023-04-10T05:12:35;101782.75;;;6.17;64.85
79534;BME280;68982;52.160;6.736;2023-04-10T05:15:00;101780.81;;;6.29;63.96
79534;BME280;68982;52.160;6.736;2023-04-10T05:17:26;101777.28;;;6.18;64.56
79534;BME280;68982;52.160;6.736;2023-04-10T05:19:51;101782.34;;;6.31;63.58
79534;BME280;68982;52.160;6.736;2023-04-10T05:22:16;101775.59;;;6.27;64.02
79534;BME280;68982;52.160;6.736;2023-04-10T05:24:42;101771.09;;;6.28;63.63
79534;BME280;68982;52.160;6.736;2023-04-10T05:27:07;101780.25;;;6.35;63.67
79534;BME280;68982;52.160;6.736;2023-04-10T05:29:32;101779.56;;;6.33;63.91
79534;BME280;68982;52.160;6.736;2023-04-10T05:31:58;101776.63;;;6.36;63.63
79534;BME280;68982;52.160;6.736;2023-04-10T05:34:24;101772.41;;;6.43;63.65
79534;BME280;68982;52.160;6.736;2023-04-10T05:36:49;101777.88;;;6.51;63.06
79534;BME280;68982;52.160;6.736;2023-04-10T05:39:14;101781.97;;;6.46;63.62
79534;BME280;68982;52.160;6.736;2023-04-10T05:41:40;101762.53;;;6.43;63.36
79534;BME280;68982;52.160;6.736;2023-04-10T05:44:06;101778.19;;;6.58;63.30
79534;BME280;68982;52.160;6.736;2023-04-10T05:46:31;101780.03;;;6.67;62.63
79534;BME280;68982;52.160;6.736;2023-04-10T05:48:57;101779.19;;;6.76;61.95
79534;BME280;68982;52.160;6.736;2023-04-10T05:51:22;101776.94;;;6.81;61.71
79534;BME280;68982;52.160;6.736;2023-04-10T05:53:47;101773.81;;;6.96;62.11
79534;BME280;68982;52.160;6.736;2023-04-10T05:56:13;101770.75;;;7.00;61.53
79534;BME280;68982;52.160;6.736;2023-04-10T05:58:38;101761.22;;;7.16;61.17
79534;BME280;68982;52.160;6.736;2023-04-10T06:01:04;101754.88;;;7.26;60.63
79534;BME280;68982;52.160;6.736;2023-04-10T06:03:29;101752.75;;;7.30;60.40
79534;BME280;68982;52.160;6.736;2023-04-10T06:05:56;101754.53;;;7.49;59.93
79534;BME280;68982;52.160;6.736;2023-04-10T06:08:22;101753.31;;;7.71;59.26
79534;BME280;68982;52.160;6.736;2023-04-10T06:10:47;101752.06;;;8.03;58.69
79534;BME280;68982;52.160;6.736;2023-04-10T06:13:13;101748.66;;;8.28;57.70
79534;BME280;68982;52.160;6.736;2023-04-10T06:15:39;101753.81;;;8.49;57.70
79534;BME280;68982;52.160;6.736;2023-04-10T06:18:05;101744.25;;;8.55;56.75
79534;BME280;68982;52.160;6.736;2023-04-10T06:20:30;101753.81;;;8.67;56.21
79534;BME280;68982;52.160;6.736;2023-04-10T06:22:57;101745.97;;;8.74;55.81
79534;BME280;68982;52.160;6.736;2023-04-10T06:25:22;101745.97;;;8.92;55.27
79534;BME280;68982;52.160;6.736;2023-04-10T06:27:48;101737.41;;;8.97;54.57
79534;BME280;68982;52.160;6.736;2023-04-10T06:30:13;101742.91;;;9.13;53.98
79534;BME280;68982;52.160;6.736;2023-04-10T06:32:38;101753.97;;;9.28;53.40
79534;BME280;68982;52.160;6.736;2023-04-10T06:35:04;101747.78;;;9.36;52.88
79534;BME280;68982;52.160;6.736;2023-04-10T06:37:30;101738.53;;;9.38;52.74
79534;BME280;68982;52.160;6.736;2023-04-10T06:40:03;101744.72;;;9.30;52.47
79534;BME280;68982;52.160;6.736;2023-04-10T06:42:29;101749.19;;;9.22;52.98
79534;BME280;68982;52.160;6.736;2023-04-10T06:44:54;101732.00;;;9.15;53.16
79534;BME280;68982;52.160;6.736;2023-04-10T06:47:20;101727.09;;;9.10;52.79
79534;BME280;68982;52.160;6.736;2023-04-10T06:49:45;101729.78;;;9.10;53.20
79534;BME280;68982;52.160;6.736;2023-04-10T06:52:10;101724.47;;;9.18;53.28
79534;BME280;68982;52.160;6.736;2023-04-10T06:54:35;101720.91;;;9.18;53.54
79534;BME280;68982;52.160;6.736;2023-04-10T06:57:01;101717.94;;;9.21;53.57
79534;BME280;68982;52.160;6.736;2023-04-10T06:59:27;101717.66;;;9.32;53.29
79534;BME280;68982;52.160;6.736;2023-04-10T07:01:53;101707.41;;;9.36;52.95
79534;BME280;68982;52.160;6.736;2023-04-10T07:04:18;101700.13;;;9.62;52.83
79534;BME280;68982;52.160;6.736;2023-04-10T07:06:44;101698.75;;;9.92;51.74
79534;BME280;68982;52.160;6.736;2023-04-10T07:09:09;101698.50;;;10.12;51.11
79534;BME280;68982;52.160;6.736;2023-04-10T07:11:34;101690.53;;;9.94;51.14
79534;BME280;68982;52.160;6.736;2023-04-10T07:14:00;101698.59;;;9.94;51.12
79534;BME280;68982;52.160;6.736;2023-04-10T07:16:25;101691.31;;;9.86;51.50
79534;BME280;68982;52.160;6.736;2023-04-10T07:18:51;101682.56;;;9.84;51.48
79534;BME280;68982;52.160;6.736;2023-04-10T07:21:16;101689.34;;;9.96;51.21
79534;BME280;68982;52.160;6.736;2023-04-10T07:23:42;101679.59;;;10.04;50.73
79534;BME280;68982;52.160;6.736;2023-04-10T07:26:07;101675.69;;;9.98;49.91
79534;BME280;68982;52.160;6.736;2023-04-10T07:28:32;101682.28;;;10.04;50.49
79534;BME280;68982;52.160;6.736;2023-04-10T07:30:58;101667.13;;;10.11;50.26
79534;BME280;68982;52.160;6.736;2023-04-10T07:33:23;101672.97;;;10.41;50.07
79534;BME280;68982;52.160;6.736;2023-04-10T07:35:48;101665.53;;;10.34;49.16
79534;BME280;68982;52.160;6.736;2023-04-10T07:38:14;101653.75;;;10.52;49.00
79534;BME280;68982;52.160;6.736;2023-04-10T07:40:39;101653.75;;;10.68;48.66
79534;BME280;68982;52.160;6.736;2023-04-10T07:43:05;101641.94;;;10.77;48.57
79534;BME280;68982;52.160;6.736;2023-04-10T07:45:30;101639.06;;;10.71;48.21
79534;BME280;68982;52.160;6.736;2023-04-10T07:47:55;101635.88;;;10.59;48.58
79534;BME280;68982;52.160;6.736;2023-04-10T07:50:22;101629.25;;;11.03;47.06
79534;BME280;68982;52.160;6.736;2023-04-10T07:52:48;101621.88;;;11.44;47.30
79534;BME280;68982;52.160;6.736;2023-04-10T07:55:13;101619.84;;;11.77;46.97
79534;BME280;68982;52.160;6.736;2023-04-10T07:57:39;101606.63;;;11.59;46.48
79534;BME280;68982;52.160;6.736;2023-04-10T08:00:05;101610.13;;;11.99;46.47
79534;BME280;68982;52.160;6.736;2023-04-10T08:02:31;101604.59;;;11.85;45.42
79534;BME280;68982;52.160;6.736;2023-04-10T08:04:56;101604.47;;;11.78;45.54
79534;BME280;68982;52.160;6.736;2023-04-10T08:07:22;101591.22;;;11.99;45.76
79534;BME280;68982;52.160;6.736;2023-04-10T08:09:47;101594.66;;;12.16;45.08
79534;BME280;68982;52.160;6.736;2023-04-10T08:12:12;101582.78;;;12.40;44.16
79534;BME280;68982;52.160;6.736;2023-04-10T08:14:38;101588.50;;;12.60;43.21
79534;BME280;68982;52.160;6.736;2023-04-10T08:17:03;101574.66;;;12.78;43.59
79534;BME280;68982;52.160;6.736;2023-04-10T08:19:29;101578.66;;;12.82;43.06
79534;BME280;68982;52.160;6.736;2023-04-10T08:21:54;101575.84;;;12.76;42.56
79534;BME280;68982;52.160;6.736;2023-04-10T08:24:19;101564.22;;;12.90;42.95
79534;BME280;68982;52.160;6.736;2023-04-10T08:26:46;101560.09;;;13.09;42.88
79534;BME280;68982;52.160;6.736;2023-04-10T08:29:12;101558.59;;;13.06;42.54
79534;BME280;68982;52.160;6.736;2023-04-10T08:31:38;101559.69;;;13.27;41.87
79534;BME280;68982;52.160;6.736;2023-04-10T08:34:03;101555.72;;;13.23;42.53
79534;BME280;68982;52.160;6.736;2023-04-10T08:36:29;101557.09;;;13.34;42.04
79534;BME280;68982;52.160;6.736;2023-04-10T08:38:55;101558.22;;;13.39;41.89
79534;BME280;68982;52.160;6.736;2023-04-10T08:41:20;101560.38;;;13.44;42.08
79534;BME280;68982;52.160;6.736;2023-04-10T08:43:46;101556.28;;;13.33;42.04
79534;BME280;68982;52.160;6.736;2023-04-10T08:46:14;101548.22;;;13.55;42.18
79534;BME280;68982;52.160;6.736;2023-04-10T08:48:58;101556.00;;;13.28;41.35
79534;BME280;68982;52.160;6.736;2023-04-10T08:51:35;101549.72;;;13.13;41.23
79534;BME280;68982;52.160;6.736;2023-04-10T08:54:12;101551.13;;;13.23;41.71
79534;BME280;68982;52.160;6.736;2023-04-10T08:56:46;101546.19;;;12.97;41.42
79534;BME280;68982;52.160;6.736;2023-04-10T08:59:14;101550.78;;;12.97;41.60
79534;BME280;68982;52.160;6.736;2023-04-10T09:01:46;101555.44;;;13.03;41.62
79534;BME280;68982;52.160;6.736;2023-04-10T09:04:12;101553.16;;;13.51;41.04
79534;BME280;68982;52.160;6.736;2023-04-10T09:06:38;101556.53;;;13.89;40.07
79534;BME280;68982;52.160;6.736;2023-04-10T09:09:07;101556.06;;;14.07;39.14
79534;BME280;68982;52.160;6.736;2023-04-10T09:14:24;101545.53;;;14.69;38.63
79534;BME280;68982;52.160;6.736;2023-04-10T09:16:51;101538.97;;;14.57;38.73
79534;BME280;68982;52.160;6.736;2023-04-10T09:19:37;101532.44;;;15.14;38.57
79534;BME280;68982;52.160;6.736;2023-04-10T09:22:03;101535.22;;;15.27;37.30
79534;BME280;68982;52.160;6.736;2023-04-10T09:24:28;101545.22;;;14.85;37.46
79534;BME280;68982;52.160;6.736;2023-04-10T09:26:54;101542.97;;;14.61;37.44
79534;BME280;68982;52.160;6.736;2023-04-10T09:29:19;101515.44;;;14.64;38.39
79534;BME280;68982;52.160;6.736;2023-04-10T09:31:45;101510.84;;;14.36;38.27
79534;BME280;68982;52.160;6.736;2023-04-10T09:36:56;101519.56;;;14.60;37.73
79534;BME280;68982;52.160;6.736;2023-04-10T09:39:36;101504.97;;;14.61;37.95
79534;BME280;68982;52.160;6.736;2023-04-10T09:42:05;101501.84;;;14.99;37.65
79534;BME280;68982;52.160;6.736;2023-04-10T09:44:32;101500.63;;;15.08;37.56
79534;BME280;68982;52.160;6.736;2023-04-10T09:49:45;101502.44;;;15.42;37.37
79534;BME280;68982;52.160;6.736;2023-04-10T09:52:33;101503.41;;;16.09;36.37
79534;BME280;68982;52.160;6.736;2023-04-10T09:55:00;101493.38;;;16.23;36.62
79534;BME280;68982;52.160;6.736;2023-04-10T09:57:28;101501.31;;;16.11;34.92
79534;BME280;68982;52.160;6.736;2023-04-10T09:59:55;101502.38;;;16.17;35.37
79534;BME280;68982;52.160;6.736;2023-04-10T10:02:23;101486.88;;;15.91;35.62
79534;BME280;68982;52.160;6.736;2023-04-10T10:04:50;101484.13;;;15.78;36.67
79534;BME280;68982;52.160;6.736;2023-04-10T10:07:17;101480.66;;;15.36;36.13
79534;BME280;68982;52.160;6.736;2023-04-10T10:09:44;101466.72;;;15.52;37.12
79534;BME280;68982;52.160;6.736;2023-04-10T10:12:15;101457.06;;;15.49;36.86
79534;BME280;68982;52.160;6.736;2023-04-10T10:20:22;101436.25;;;16.23;35.44
79534;BME280;68982;52.160;6.736;2023-04-10T10:22:48;101432.44;;;16.37;35.61
79534;BME280;68982;52.160;6.736;2023-04-10T10:25:14;101450.25;;;16.07;35.38
79534;BME280;68982;52.160;6.736;2023-04-10T10:27:40;101417.41;;;16.08;36.20
79534;BME280;68982;52.160;6.736;2023-04-10T10:30:08;101419.06;;;16.03;36.76
79534;BME280;68982;52.160;6.736;2023-04-10T10:32:33;101408.19;;;16.03;36.88
79534;BME280;68982;52.160;6.736;2023-04-10T10:34:59;101401.53;;;16.05;36.20
79534;BME280;68982;52.160;6.736;2023-04-10T10:37:28;101399.22;;;15.82;36.33
79534;BME280;68982;52.160;6.736;2023-04-10T10:39:58;101386.41;;;15.56;35.81
79534;BME280;68982;52.160;6.736;2023-04-10T10:44:59;101384.97;;;16.00;35.45
79534;BME280;68982;52.160;6.736;2023-04-10T10:47:31;101385.41;;;15.97;35.94
79534;BME280;68982;52.160;6.736;2023-04-10T10:49:58;101384.13;;;16.06;36.50
79534;BME280;68982;52.160;6.736;2023-04-10T10:52:44;101377.06;;;15.79;36.15
79534;BME280;68982;52.160;6.736;2023-04-10T10:57:59;101369.91;;;15.64;37.43
79534;BME280;68982;52.160;6.736;2023-04-10T11:01:11;101371.16;;;15.55;38.00
79534;BME280;68982;52.160;6.736;2023-04-10T11:05:58;101351.72;;;15.85;38.85
79534;BME280;68982;52.160;6.736;2023-04-10T11:08:42;101351.94;;;15.97;38.12
79534;BME280;68982;52.160;6.736;2023-04-10T11:11:26;101346.47;;;16.16;37.90
79534;BME280;68982;52.160;6.736;2023-04-10T11:16:18;101353.59;;;16.04;37.72
79534;BME280;68982;52.160;6.736;2023-04-10T11:31:46;101316.41;;;16.50;36.39
79534;BME280;68982;52.160;6.736;2023-04-10T11:34:19;101319.53;;;16.47;36.42
79534;BME280;68982;52.160;6.736;2023-04-10T11:36:45;101308.97;;;16.70;36.48
79534;BME280;68982;52.160;6.736;2023-04-10T11:39:13;101312.03;;;16.42;36.50
79534;BME280;68982;52.160;6.736;2023-04-10T11:41:44;101314.03;;;16.08;36.83
79534;BME280;68982;52.160;6.736;2023-04-10T11:44:13;101298.34;;;16.04;37.13
79534;BME280;68982;52.160;6.736;2023-04-10T11:46:40;101299.94;;;16.31;36.60
79534;BME280;68982;52.160;6.736;2023-04-10T11:49:08;101288.28;;;16.11;36.96
79534;BME280;68982;52.160;6.736;2023-04-10T11:51:37;101290.97;;;16.24;36.63
79534;BME280;68982;52.160;6.736;2023-04-10T11:54:14;101295.50;;;16.44;36.37
79534;BME280;68982;52.160;6.736;2023-04-10T11:56:42;101283.34;;;16.46;36.29
79534;BME280;68982;52.160;6.736;2023-04-10T11:59:08;101283.94;;;16.55;36.52
79534;BME280;68982;52.160;6.736;2023-04-10T12:01:35;101275.16;;;16.46;36.10
79534;BME280;68982;52.160;6.736;2023-04-10T12:04:01;101281.66;;;16.52;36.49
79534;BME280;68982;52.160;6.736;2023-04-10T12:06:27;101279.66;;;16.72;36.61
79534;BME280;68982;52.160;6.736;2023-04-10T12:08:52;101266.59;;;16.88;36.31
79534;BME280;68982;52.160;6.736;2023-04-10T12:11:22;101276.16;;;16.97;35.45
79534;BME280;68982;52.160;6.736;2023-04-10T12:13:55;101257.91;;;16.66;36.57
79534;BME280;68982;52.160;6.736;2023-04-10T12:16:21;101255.34;;;16.71;36.41
79534;BME280;68982;52.160;6.736;2023-04-10T12:18:48;101259.41;;;16.93;35.93
79534;BME280;68982;52.160;6.736;2023-04-10T12:21:13;101243.59;;;17.09;35.66
79534;BME280;68982;52.160;6.736;2023-04-10T12:23:39;101248.09;;;16.96;34.71
79534;BME280;68982;52.160;6.736;2023-04-10T12:26:15;101228.56;;;17.25;34.65
79534;BME280;68982;52.160;6.736;2023-04-10T12:28:49;101221.56;;;17.35;35.05
79534;BME280;68982;52.160;6.736;2023-04-10T12:31:14;101211.41;;;17.43;34.63
79534;BME280;68982;52.160;6.736;2023-04-10T12:33:44;101217.53;;;17.63;34.66
79534;BME280;68982;52.160;6.736;2023-04-10T12:36:24;101211.06;;;17.76;33.52
79534;BME280;68982;52.160;6.736;2023-04-10T12:38:53;101214.78;;;18.18;33.26
79534;BME280;68982;52.160;6.736;2023-04-10T12:41:23;101218.16;;;18.02;33.00
79534;BME280;68982;52.160;6.736;2023-04-10T12:43:50;101217.00;;;17.73;33.80
79534;BME280;68982;52.160;6.736;2023-04-10T12:46:25;101225.44;;;17.46;33.63
79534;BME280;68982;52.160;6.736;2023-04-10T12:48:51;101213.50;;;17.22;34.37
79534;BME280;68982;52.160;6.736;2023-04-10T12:51:16;101213.53;;;17.40;33.54
79534;BME280;68982;52.160;6.736;2023-04-10T12:53:43;101208.72;;;17.79;33.34
79534;BME280;68982;52.160;6.736;2023-04-10T12:56:09;101209.97;;;18.02;32.81
79534;BME280;68982;52.160;6.736;2023-04-10T12:58:36;101189.13;;;18.08;32.78
79534;BME280;68982;52.160;6.736;2023-04-10T13:01:04;101194.50;;;17.59;32.83
79534;BME280;68982;52.160;6.736;2023-04-10T13:03:30;101211.69;;;17.59;33.83
79534;BME280;68982;52.160;6.736;2023-04-10T13:05:57;101195.97;;;17.36;33.76
79534;BME280;68982;52.160;6.736;2023-04-10T13:08:23;101185.44;;;17.40;33.50
79534;BME280;68982;52.160;6.736;2023-04-10T13:10:48;101183.53;;;17.40;33.86
79534;BME280;68982;52.160;6.736;2023-04-10T13:13:14;101183.25;;;17.30;34.38
79534;BME280;68982;52.160;6.736;2023-04-10T13:15:40;101170.34;;;17.19;34.72
79534;BME280;68982;52.160;6.736;2023-04-10T13:18:06;101172.47;;;17.17;34.75
79534;BME280;68982;52.160;6.736;2023-04-10T13:20:33;101162.56;;;17.23;34.65
79534;BME280;68982;52.160;6.736;2023-04-10T13:22:59;101157.19;;;16.91;34.13
79534;BME280;68982;52.160;6.736;2023-04-10T13:25:27;101154.41;;;16.97;34.46
79534;BME280;68982;52.160;6.736;2023-04-10T13:27:52;101156.72;;;16.69;34.33
79534;BME280;68982;52.160;6.736;2023-04-10T13:30:17;101131.47;;;16.55;35.48
79534;BME280;68982;52.160;6.736;2023-04-10T13:32:42;101135.38;;;16.66;35.70
79534;BME280;68982;52.160;6.736;2023-04-10T13:35:08;101115.59;;;16.52;36.19
79534;BME280;68982;52.160;6.736;2023-04-10T13:37:33;101140.31;;;16.50;35.90
79534;BME280;68982;52.160;6.736;2023-04-10T13:39:59;101105.91;;;16.31;36.40
79534;BME280;68982;52.160;6.736;2023-04-10T13:42:24;101103.66;;;16.21;35.32